createdAt,value
2019-06-10T00:02:10.769Z,20.50
2019-06-10T00:04:41.580Z,20.40
2019-06-10T00:07:12.120Z,20.40
2019-06-10T00:09:42.282Z,20.30
2019-06-10T00:12:12.887Z,20.30
2019-06-10T00:14:43.113Z,20.20
2019-06-10T00:17:13.322Z,20.20
2019-06-10T00:19:43.636Z,20.20
2019-06-10T00:22:13.972Z,20.10
2019-06-10T00:24:44.171Z,20.10
2019-06-10T00:27:14.395Z,20.10
2019-06-10T00:29:44.266Z,20.10
2019-06-10T00:32:14.112Z,20.10
2019-06-10T00:34:44.255Z,20.10
2019-06-10T00:37:15.104Z,20.10
2019-06-10T00:39:45.426Z,20.10
2019-06-10T00:42:15.542Z,20.10
2019-06-10T00:44:45.752Z,20.10
2019-06-10T00:47:15.973Z,20.00
2019-06-10T00:49:46.277Z,19.90
2019-06-10T00:52:16.230Z,19.90
2019-06-10T00:54:46.542Z,19.80
2019-06-10T00:57:16.862Z,19.80
2019-06-10T00:59:47.172Z,19.70
2019-06-10T01:02:18.300Z,19.70
2019-06-10T01:04:51.244Z,19.70
2019-06-10T01:07:21.807Z,19.60
2019-06-10T01:09:52.267Z,19.50
2019-06-10T01:12:22.538Z,19.50
2019-06-10T01:14:52.735Z,19.40
2019-06-10T01:17:22.859Z,19.30
2019-06-10T01:19:53.557Z,19.30
2019-06-10T01:22:23.781Z,19.30
2019-06-10T01:24:53.796Z,19.20
2019-06-10T01:27:24.011Z,19.20
2019-06-10T01:29:54.276Z,19.20
2019-06-10T01:32:24.615Z,19.20
2019-06-10T01:34:54.882Z,19.20
2019-06-10T01:37:24.975Z,19.30
2019-06-10T01:39:55.230Z,19.30
2019-06-10T01:42:25.433Z,19.40
2019-06-10T01:44:55.662Z,19.40
2019-06-10T01:47:25.990Z,19.50
2019-06-10T01:49:56.234Z,19.50
2019-06-10T01:52:26.434Z,19.50
2019-06-10T01:54:56.675Z,19.50
2019-06-10T01:57:26.665Z,19.50
2019-06-10T01:59:56.561Z,19.50
2019-06-10T02:02:26.794Z,19.40
2019-06-10T02:04:57.845Z,19.40
2019-06-10T02:07:28.090Z,19.40
2019-06-10T02:09:57.987Z,19.40
2019-06-10T02:12:27.849Z,19.40
2019-06-10T02:14:57.806Z,19.40
2019-06-10T02:17:28.137Z,19.30
2019-06-10T02:19:58.394Z,19.30
2019-06-10T02:22:28.238Z,19.30
2019-06-10T02:24:58.468Z,19.20
2019-06-10T02:27:28.699Z,19.10
2019-06-10T02:30:01.550Z,19.10
2019-06-10T02:32:36.914Z,19.00
2019-06-10T02:35:10.499Z,19.00
2019-06-10T02:37:37.890Z,19.00
2019-06-10T02:40:07.131Z,19.00
2019-06-10T02:42:43.497Z,18.90
2019-06-10T02:45:17.360Z,18.90
2019-06-10T02:47:45.112Z,18.90
2019-06-10T02:50:19.760Z,18.80
2019-06-10T02:52:47.778Z,18.80
2019-06-10T02:55:20.289Z,18.80
2019-06-10T02:57:53.241Z,18.80
2019-06-10T03:00:36.062Z,18.70
2019-06-10T03:02:54.825Z,18.70
2019-06-10T03:05:30.744Z,18.70
2019-06-10T03:07:57.109Z,18.70
2019-06-10T03:10:32.545Z,18.70
2019-06-10T03:13:02.423Z,18.70
2019-06-10T03:15:33.681Z,18.70
2019-06-10T03:18:03.987Z,18.70
2019-06-10T03:20:34.210Z,18.70
2019-06-10T03:23:04.380Z,18.70
2019-06-10T03:25:34.634Z,18.60
2019-06-10T03:28:04.934Z,18.60
2019-06-10T03:30:47.867Z,18.60
2019-06-10T03:33:08.394Z,18.70
2019-06-10T03:35:42.229Z,18.70
2019-06-10T03:38:12.351Z,18.80
2019-06-10T03:40:43.398Z,18.70
2019-06-10T03:43:14.626Z,18.70
2019-06-10T03:45:46.234Z,18.60
2019-06-10T03:48:17.092Z,18.50
2019-06-10T03:50:47.476Z,18.50
2019-06-10T03:53:17.715Z,18.50
2019-06-10T03:55:48.658Z,18.40
2019-06-10T03:58:19.928Z,18.30
2019-06-10T04:00:52.276Z,18.30
2019-06-10T04:03:24.794Z,18.30
2019-06-10T04:05:56.397Z,18.30
2019-06-10T04:08:28.002Z,18.20
2019-06-10T04:10:58.760Z,18.30
2019-06-10T04:13:29.029Z,18.40
2019-06-10T04:16:02.167Z,18.40
2019-06-10T04:18:33.923Z,18.50
2019-06-10T04:21:08.107Z,18.50
2019-06-10T04:23:38.667Z,18.50
2019-06-10T04:26:08.937Z,18.60
2019-06-10T04:28:39.168Z,18.60
2019-06-10T04:31:09.339Z,18.60
2019-06-10T04:33:41.956Z,18.60
2019-06-10T04:36:13.496Z,18.60
2019-06-10T04:38:43.426Z,18.70
2019-06-10T04:41:13.686Z,18.70
2019-06-10T04:43:43.998Z,18.80
2019-06-10T04:46:14.274Z,18.90
2019-06-10T04:48:44.445Z,18.90
2019-06-10T04:51:14.771Z,18.90
2019-06-10T04:53:44.957Z,19.00
2019-06-10T04:56:15.108Z,19.00
2019-06-10T04:58:45.425Z,19.10
2019-06-10T05:01:15.654Z,19.10
2019-06-10T05:03:46.090Z,19.20
2019-06-10T05:06:16.469Z,19.20
2019-06-10T05:08:46.686Z,19.30
2019-06-10T05:11:16.909Z,19.30
2019-06-10T05:13:47.122Z,19.30
2019-06-10T05:16:17.169Z,19.40
2019-06-10T05:18:47.243Z,19.30
2019-06-10T05:21:17.519Z,19.40
2019-06-10T05:23:47.734Z,19.50
2019-06-10T05:26:18.017Z,19.50
2019-06-10T05:28:48.284Z,19.60
2019-06-10T05:31:18.477Z,19.70
2019-06-10T05:33:48.640Z,19.80
2019-06-10T05:36:18.947Z,20.00
2019-06-10T05:38:49.178Z,20.10
2019-06-10T05:41:19.188Z,20.40
2019-06-10T05:43:52.469Z,20.60
2019-06-10T05:46:24.312Z,20.80
2019-06-10T05:48:54.545Z,20.90
2019-06-10T05:51:26.113Z,21.00
2019-06-10T05:53:56.640Z,21.00
2019-06-10T05:56:27.197Z,21.10
2019-06-10T05:58:57.561Z,21.10
2019-06-10T06:01:28.211Z,21.10
2019-06-10T06:03:58.344Z,21.10
2019-06-10T06:06:29.145Z,21.10
2019-06-10T06:09:02.171Z,21.10
2019-06-10T06:11:33.418Z,21.20
2019-06-10T06:14:03.826Z,21.20
2019-06-10T06:16:36.087Z,21.20
2019-06-10T06:19:06.115Z,21.30
2019-06-10T06:21:42.740Z,21.40
2019-06-10T06:24:08.245Z,21.40
2019-06-10T06:26:39.738Z,21.40
2019-06-10T06:29:10.122Z,21.40
2019-06-10T06:31:42.706Z,21.50
2019-06-10T06:34:13.912Z,21.50
2019-06-10T06:36:44.081Z,21.60
2019-06-10T06:39:14.382Z,21.70
2019-06-10T06:41:44.614Z,21.80
2019-06-10T06:44:14.788Z,21.80
2019-06-10T06:46:44.938Z,21.80
2019-06-10T06:49:15.235Z,21.80
2019-06-10T06:51:54.677Z,21.80
2019-06-10T06:54:17.201Z,21.90
2019-06-10T06:56:47.551Z,21.90
2019-06-10T06:59:17.961Z,22.00
2019-06-10T07:01:47.976Z,22.00
2019-06-10T07:04:18.393Z,22.00
2019-06-10T07:06:52.681Z,22.00
2019-06-10T07:09:22.631Z,22.00
2019-06-10T07:11:54.083Z,22.00
2019-06-10T07:14:25.785Z,22.00
2019-06-10T07:16:56.064Z,22.00
2019-06-10T07:19:26.281Z,22.10
2019-06-10T07:22:08.313Z,22.10
2019-06-10T07:24:28.508Z,22.10
2019-06-10T07:26:58.741Z,22.10
2019-06-10T07:29:28.942Z,22.20
2019-06-10T07:31:59.179Z,22.10
2019-06-10T07:34:29.448Z,22.10
2019-06-10T07:37:06.934Z,22.10
2019-06-10T07:39:38.373Z,22.00
2019-06-10T07:42:09.125Z,22.00
2019-06-10T07:44:39.384Z,22.00
2019-06-10T07:47:09.618Z,22.10
2019-06-10T07:49:41.269Z,22.10
2019-06-10T07:52:18.492Z,22.20
2019-06-10T07:54:45.269Z,22.30
2019-06-10T07:57:16.018Z,22.40
2019-06-10T07:59:46.314Z,22.40
2019-06-10T08:02:16.774Z,22.50
2019-06-10T08:04:47.026Z,22.60
2019-06-10T08:07:17.188Z,22.70
2019-06-10T08:09:47.546Z,22.90
2019-06-10T08:12:23.271Z,23.00
2019-06-10T08:14:53.585Z,23.10
2019-06-10T08:17:23.983Z,23.20
2019-06-10T08:19:54.515Z,23.30
2019-06-10T08:22:33.237Z,23.40
2019-06-10T08:24:56.694Z,23.50
2019-06-10T08:27:26.936Z,23.60
2019-06-10T08:30:14.222Z,23.80
2019-06-10T08:32:29.152Z,23.80
2019-06-10T08:34:59.016Z,24.00
2019-06-10T08:37:29.257Z,24.10
2019-06-10T08:39:59.158Z,24.30
2019-06-10T08:42:29.102Z,24.40
2019-06-10T08:44:59.983Z,24.60
2019-06-10T08:47:32.445Z,24.80
2019-06-10T08:50:02.720Z,25.00
2019-06-10T08:52:49.477Z,25.20
2019-06-10T08:55:04.570Z,25.30
2019-06-10T08:57:35.006Z,25.40
2019-06-10T09:00:11.713Z,25.50
2019-06-10T09:02:39.143Z,25.60
2019-06-10T09:05:13.052Z,25.60
2019-06-10T09:07:47.732Z,25.60
2019-06-10T09:10:14.885Z,25.50
2019-06-10T09:12:49.147Z,25.40
2019-06-10T09:15:17.884Z,25.30
2019-06-10T09:17:51.807Z,25.30
2019-06-10T09:20:22.790Z,25.30
2019-06-10T09:23:13.942Z,25.40
2019-06-10T09:25:23.320Z,25.50
2019-06-10T09:27:54.717Z,25.60
2019-06-10T09:30:25.049Z,25.70
2019-06-10T09:32:56.865Z,25.80
2019-06-10T09:35:26.638Z,26.00
2019-06-10T09:37:56.926Z,26.10
2019-06-10T09:40:48.891Z,26.30
2019-06-10T09:43:17.086Z,26.40
2019-06-10T09:45:50.280Z,26.60
2019-06-10T09:48:22.896Z,26.90
2019-06-10T09:50:57.818Z,27.00
2019-06-10T09:53:33.847Z,27.10
2019-06-10T09:55:56.768Z,27.10
2019-06-10T09:58:26.775Z,26.90
2019-06-10T10:00:58.848Z,26.60
2019-06-10T10:03:28.855Z,26.40
2019-06-10T10:06:09.985Z,26.30
2019-06-10T10:08:32.619Z,26.30
2019-06-10T10:11:02.008Z,26.40
2019-06-10T10:13:35.417Z,26.40
2019-06-10T10:16:04.634Z,26.70
2019-06-10T10:18:34.712Z,26.80
2019-06-10T10:21:04.721Z,26.70
2019-06-10T10:23:50.434Z,26.50
2019-06-10T10:26:06.193Z,26.50
2019-06-10T10:28:36.102Z,26.40
2019-06-10T10:31:06.113Z,26.40
2019-06-10T10:33:36.010Z,26.50
2019-06-10T10:36:05.997Z,26.30
2019-06-10T10:38:36.009Z,26.40
2019-06-10T10:41:07.227Z,26.30
2019-06-10T10:43:38.024Z,26.20
2019-06-10T10:46:08.097Z,26.00
2019-06-10T10:48:37.965Z,25.80
2019-06-10T10:51:07.917Z,25.60
2019-06-10T10:53:39.031Z,25.40
2019-06-10T10:56:12.986Z,25.20
2019-06-10T10:58:45.450Z,25.00
2019-06-10T11:01:16.515Z,24.80
2019-06-10T11:03:48.230Z,24.60
2019-06-10T11:06:19.974Z,24.60
2019-06-10T11:08:50.019Z,24.50
2019-06-10T11:11:22.827Z,24.40
2019-06-10T11:13:56.794Z,24.40
2019-06-10T11:16:27.606Z,24.40
2019-06-10T11:18:58.079Z,24.50
2019-06-10T11:21:28.090Z,24.60
2019-06-10T11:24:01.529Z,24.60
2019-06-10T11:26:32.166Z,24.60
2019-06-10T11:29:02.970Z,24.60
2019-06-10T11:31:32.893Z,24.60
2019-06-10T11:34:03.274Z,24.60
2019-06-10T11:36:33.575Z,24.60
2019-06-10T11:39:03.430Z,24.50
2019-06-10T11:41:33.379Z,24.40
2019-06-10T11:44:04.926Z,24.30
2019-06-10T11:46:34.803Z,24.10
2019-06-10T11:49:04.841Z,23.90
2019-06-10T11:51:34.733Z,23.80
2019-06-10T11:54:06.069Z,23.70
2019-06-10T11:56:37.282Z,23.60
2019-06-10T11:59:09.619Z,23.60
2019-06-10T12:01:39.650Z,23.60
2019-06-10T12:04:09.610Z,23.50
2019-06-10T12:06:39.662Z,23.60
2019-06-10T12:09:10.278Z,23.70
2019-06-10T12:11:43.472Z,23.90
2019-06-10T12:14:13.039Z,24.00
2019-06-10T12:17:29.786Z,23.80
2019-06-10T12:19:34.058Z,23.60
2019-06-10T12:22:07.446Z,23.50
2019-06-10T12:24:36.422Z,23.50
2019-06-10T12:27:06.383Z,23.60
2019-06-10T12:29:36.308Z,24.10
2019-06-10T12:32:07.485Z,24.40
2019-06-10T12:34:37.570Z,24.90
2019-06-10T12:37:11.992Z,25.20
2019-06-10T12:39:39.130Z,25.40
2019-06-10T12:42:11.068Z,25.60
2019-06-10T12:44:42.703Z,25.70
2019-06-10T12:47:12.189Z,25.80
2019-06-10T12:49:42.745Z,25.80
2019-06-10T12:52:12.888Z,25.80
2019-06-10T12:54:42.794Z,26.70
2019-06-10T12:57:15.576Z,28.20
2019-06-10T12:59:44.345Z,29.00
2019-06-10T13:02:22.526Z,29.90
2019-06-10T13:04:46.490Z,30.80
2019-06-10T13:07:18.795Z,30.70
2019-06-10T13:09:48.772Z,30.80
2019-06-10T13:12:18.616Z,31.40
2019-06-10T13:14:51.913Z,31.90
2019-06-10T13:17:20.998Z,32.20
2019-06-10T13:19:50.929Z,32.20
2019-06-10T13:22:22.972Z,32.30
2019-06-10T13:24:53.514Z,32.70
2019-06-10T13:27:23.580Z,33.10
2019-06-10T13:29:53.526Z,33.60
2019-06-10T13:32:23.407Z,33.90
2019-06-10T13:34:53.273Z,34.30
2019-06-10T13:37:23.173Z,34.70
2019-06-10T13:39:53.041Z,35.00
2019-06-10T13:42:22.981Z,34.70
2019-06-10T13:44:53.186Z,33.60
2019-06-10T13:47:26.039Z,32.40
2019-06-10T13:49:54.796Z,31.80
2019-06-10T13:52:24.689Z,32.00
2019-06-10T13:54:54.573Z,32.50
2019-06-10T13:57:24.630Z,32.50
2019-06-10T13:59:54.560Z,31.90
2019-06-10T14:02:24.894Z,31.70
2019-06-10T14:04:55.492Z,31.90
2019-06-10T14:07:25.434Z,31.70
2019-06-10T14:09:55.340Z,31.40
2019-06-10T14:12:25.202Z,30.90
2019-06-10T14:14:55.413Z,30.90
2019-06-10T14:17:26.226Z,30.80
2019-06-10T14:19:56.112Z,30.90
2019-06-10T14:22:26.045Z,30.80
2019-06-10T14:24:55.936Z,31.10
2019-06-10T14:27:25.802Z,31.20
2019-06-10T14:29:55.720Z,31.30
2019-06-10T14:32:25.659Z,32.20
2019-06-10T14:34:55.517Z,32.30
2019-06-10T14:37:38.569Z,31.90
2019-06-10T14:39:57.114Z,31.60
2019-06-10T14:42:26.989Z,31.30
2019-06-10T14:44:56.946Z,31.50
2019-06-10T14:47:26.834Z,32.00
2019-06-10T14:49:57.400Z,32.90
2019-06-10T14:52:27.334Z,34.00
2019-06-10T14:54:57.667Z,35.00
2019-06-10T14:57:27.683Z,35.30
2019-06-10T14:59:57.627Z,35.60
2019-06-10T15:02:27.525Z,35.90
2019-06-10T15:04:57.402Z,36.30
2019-06-10T15:07:27.361Z,36.70
2019-06-10T15:09:57.482Z,37.30
2019-06-10T15:12:27.342Z,37.60
2019-06-10T15:14:57.370Z,37.80
2019-06-10T15:17:27.234Z,37.70
2019-06-10T15:19:57.370Z,38.00
2019-06-10T15:22:27.860Z,37.70
2019-06-10T15:24:58.095Z,37.40
2019-06-10T15:27:31.672Z,37.20
2019-06-10T15:30:00.154Z,37.20
2019-06-10T15:32:34.655Z,37.30
2019-06-10T15:35:03.335Z,37.30
2019-06-10T15:37:33.157Z,36.90
2019-06-10T15:40:03.690Z,36.70
2019-06-10T15:42:33.673Z,36.40
2019-06-10T15:45:03.658Z,36.20
2019-06-10T15:47:33.526Z,36.10
2019-06-10T15:50:04.099Z,36.30
2019-06-10T15:52:34.043Z,36.40
2019-06-10T15:55:04.279Z,36.30
2019-06-10T15:57:40.707Z,36.00
2019-06-10T16:00:12.271Z,36.00
2019-06-10T16:02:39.598Z,36.30
2019-06-10T16:05:09.483Z,36.40
2019-06-10T16:07:42.374Z,36.70
2019-06-10T16:10:32.696Z,36.90
2019-06-10T16:13:03.611Z,36.90
2019-06-10T16:15:33.472Z,36.70
2019-06-10T16:18:05.276Z,36.40
2019-06-10T16:20:36.342Z,36.40
2019-06-10T16:23:06.485Z,36.30
2019-06-10T16:25:42.452Z,36.20
2019-06-10T16:28:12.856Z,36.10
2019-06-10T16:30:43.302Z,36.10
2019-06-10T16:33:14.637Z,35.90
2019-06-10T16:35:44.747Z,35.60
2019-06-10T16:38:14.910Z,35.50
2019-06-10T16:40:44.934Z,35.40
2019-06-10T16:43:15.646Z,35.30
2019-06-10T16:45:45.574Z,35.00
2019-06-10T16:48:18.989Z,34.80
2019-06-10T16:50:49.006Z,34.60
2019-06-10T16:53:19.893Z,34.40
2019-06-10T16:55:52.965Z,34.30
2019-06-10T16:58:26.244Z,33.80
2019-06-10T17:00:54.059Z,33.60
2019-06-10T17:03:26.811Z,33.50
2019-06-10T17:05:55.457Z,33.20
2019-06-10T17:08:28.297Z,33.10
2019-06-10T17:10:56.938Z,33.10
2019-06-10T17:13:28.986Z,33.20
2019-06-10T17:16:00.295Z,33.10
2019-06-10T17:18:33.603Z,32.90
2019-06-10T17:21:04.632Z,32.70
2019-06-10T17:23:36.463Z,32.60
2019-06-10T17:26:06.204Z,32.70
2019-06-10T17:28:37.022Z,32.40
2019-06-10T17:31:07.278Z,32.20
2019-06-10T17:33:37.106Z,32.00
2019-06-10T17:36:07.517Z,31.90
2019-06-10T17:38:37.372Z,31.80
2019-06-10T17:41:07.341Z,31.60
2019-06-10T17:43:37.275Z,31.50
2019-06-10T17:46:07.742Z,31.30
2019-06-10T17:48:37.904Z,31.00
2019-06-10T17:51:08.781Z,30.90
2019-06-10T17:53:38.755Z,30.60
2019-06-10T17:56:08.618Z,30.20
2019-06-10T17:58:51.671Z,29.80
2019-06-10T18:01:10.032Z,29.60
2019-06-10T18:03:42.889Z,29.30
2019-06-10T18:06:13.343Z,29.10
2019-06-10T18:08:43.478Z,29.00
2019-06-10T18:11:13.402Z,28.80
2019-06-10T18:13:43.270Z,28.70
2019-06-10T18:16:13.372Z,28.50
2019-06-10T18:18:43.338Z,28.40
2019-06-10T18:21:13.263Z,28.30
2019-06-10T18:23:44.122Z,28.10
2019-06-10T18:26:14.024Z,28.00
2019-06-10T18:29:00.452Z,27.90
2019-06-10T18:31:18.792Z,27.80
2019-06-10T18:33:49.846Z,27.70
2019-06-10T18:36:24.471Z,27.70
2019-06-10T18:38:54.276Z,27.50
2019-06-10T18:41:31.615Z,27.50
2019-06-10T18:44:02.298Z,27.40
2019-06-10T18:46:33.324Z,27.40
2019-06-10T18:49:03.901Z,27.30
2019-06-10T18:51:35.585Z,27.20
2019-06-10T18:54:08.914Z,27.00
2019-06-10T18:56:39.968Z,26.90
2019-06-10T18:59:19.586Z,26.80
2019-06-10T19:01:42.349Z,26.70
2019-06-10T19:04:13.028Z,26.60
2019-06-10T19:06:43.344Z,26.50
2019-06-10T19:09:13.344Z,26.40
2019-06-10T19:11:43.567Z,26.40
2019-06-10T19:14:13.577Z,26.30
2019-06-10T19:16:43.503Z,26.20
2019-06-10T19:19:13.346Z,26.10
2019-06-10T19:21:44.082Z,26.00
2019-06-10T19:24:14.361Z,26.00
2019-06-10T19:26:45.360Z,25.90
2019-06-10T19:29:30.054Z,25.80
2019-06-10T19:31:46.876Z,25.80
2019-06-10T19:34:16.833Z,25.70
2019-06-10T19:36:46.730Z,25.60
2019-06-10T19:39:16.658Z,25.60
2019-06-10T19:41:47.472Z,25.50
2019-06-10T19:44:17.645Z,25.40
2019-06-10T19:46:47.763Z,25.40
2019-06-10T19:49:17.586Z,25.30
2019-06-10T19:51:47.502Z,25.30
2019-06-10T19:54:17.530Z,25.20
2019-06-10T19:56:47.530Z,25.20
2019-06-10T19:59:17.482Z,25.20
2019-06-10T20:01:48.795Z,25.10
2019-06-10T20:04:18.843Z,25.10
2019-06-10T20:06:50.749Z,25.10
2019-06-10T20:09:22.469Z,25.00
2019-06-10T20:11:51.811Z,24.90
2019-06-10T20:14:21.740Z,24.90
2019-06-10T20:16:52.663Z,24.90
2019-06-10T20:19:22.966Z,24.80
2019-06-10T20:21:52.953Z,24.80
2019-06-10T20:24:22.863Z,24.70
2019-06-10T20:26:52.930Z,24.60
2019-06-10T20:29:24.054Z,24.60
2019-06-10T20:31:53.989Z,24.60
2019-06-10T20:34:25.756Z,24.50
2019-06-10T20:36:55.554Z,24.50
2019-06-10T20:39:25.470Z,24.50
2019-06-10T20:41:55.973Z,24.50
2019-06-10T20:44:25.975Z,24.40
2019-06-10T20:46:55.920Z,24.40
2019-06-10T20:49:25.792Z,24.30
2019-06-10T20:52:08.090Z,24.30
2019-06-10T20:54:27.233Z,24.20
2019-06-10T20:56:57.092Z,24.20
2019-06-10T20:59:26.949Z,24.10
2019-06-10T21:01:56.863Z,24.10
2019-06-10T21:04:26.727Z,24.00
2019-06-10T21:06:57.454Z,24.00
2019-06-10T21:09:28.390Z,23.90
2019-06-10T21:11:58.262Z,23.80
2019-06-10T21:14:28.139Z,23.80
2019-06-10T21:16:58.077Z,23.70
2019-06-10T21:19:27.919Z,23.70
2019-06-10T21:21:57.863Z,23.70
2019-06-10T21:24:27.905Z,23.70
2019-06-10T21:26:57.846Z,23.70
2019-06-10T21:29:27.702Z,23.70
2019-06-10T21:31:58.574Z,23.60
2019-06-10T21:34:28.451Z,23.60
2019-06-10T21:36:58.371Z,23.60
2019-06-10T21:39:28.287Z,23.50
2019-06-10T21:41:58.243Z,23.50
2019-06-10T21:44:28.083Z,23.50
2019-06-10T21:46:58.095Z,23.40
2019-06-10T21:49:27.953Z,23.30
2019-06-10T21:51:57.833Z,23.20
2019-06-10T21:54:27.762Z,23.10
2019-06-10T21:56:57.637Z,23.00
2019-06-10T21:59:27.522Z,22.90
2019-06-10T22:01:57.576Z,22.80
2019-06-10T22:04:27.559Z,22.80
2019-06-10T22:06:57.426Z,22.70
2019-06-10T22:09:27.350Z,22.60
2019-06-10T22:11:57.214Z,22.60
2019-06-10T22:14:27.196Z,22.50
2019-06-10T22:16:57.157Z,22.40
2019-06-10T22:19:27.047Z,22.20
2019-06-10T22:21:57.368Z,22.20
2019-06-10T22:24:27.290Z,22.10
2019-06-10T22:26:57.175Z,22.10
2019-06-10T22:29:27.058Z,22.00
2019-06-10T22:31:57.325Z,21.80
2019-06-10T22:34:27.402Z,21.80
2019-06-10T22:36:57.660Z,21.80
2019-06-10T22:39:27.888Z,21.70
2019-06-10T22:41:57.755Z,21.70
2019-06-10T22:44:27.638Z,21.70
2019-06-10T22:46:57.575Z,21.70
2019-06-10T22:49:27.441Z,21.70
2019-06-10T22:51:58.971Z,21.70
2019-06-10T22:54:28.866Z,21.80
2019-06-10T22:57:00.045Z,21.80
2019-06-10T22:59:30.498Z,21.80
2019-06-10T23:02:02.846Z,21.80
2019-06-10T23:04:33.230Z,21.80
2019-06-10T23:07:03.417Z,21.90
2019-06-10T23:09:33.357Z,21.90
2019-06-10T23:12:03.238Z,21.90
2019-06-10T23:14:33.340Z,21.90
2019-06-10T23:17:03.369Z,21.80
2019-06-10T23:19:33.420Z,21.70
2019-06-10T23:22:03.378Z,21.50
2019-06-10T23:24:33.262Z,21.50
2019-06-10T23:27:03.584Z,21.50
2019-06-10T23:29:33.686Z,21.40
2019-06-10T23:32:07.065Z,21.40
2019-06-10T23:34:35.096Z,21.30
2019-06-10T23:37:06.131Z,21.40
2019-06-10T23:39:36.001Z,21.40
2019-06-10T23:42:06.168Z,21.40
2019-06-10T23:44:36.110Z,21.40
2019-06-10T23:47:06.059Z,21.40
2019-06-10T23:49:35.918Z,21.40
2019-06-10T23:52:06.035Z,21.30
2019-06-10T23:54:36.201Z,21.30
2019-06-10T23:57:06.497Z,21.20
2019-06-10T23:59:36.799Z,21.20
